createdAt,value
2018-07-26T00:01:05.282Z,68.23
2018-07-26T00:03:34.968Z,68.03
2018-07-26T00:06:04.837Z,67.60
2018-07-26T00:08:34.543Z,68.14
2018-07-26T00:11:04.310Z,68.41
2018-07-26T00:13:34.730Z,68.33
2018-07-26T00:16:04.630Z,67.82
2018-07-26T00:18:34.833Z,68.46
2018-07-26T00:21:05.279Z,67.81
2018-07-26T00:23:35.077Z,67.67
2018-07-26T00:26:04.967Z,66.96
2018-07-26T00:28:34.632Z,67.78
2018-07-26T00:31:04.858Z,67.62
2018-07-26T00:33:34.523Z,67.35
2018-07-26T00:36:04.338Z,68.12
2018-07-26T00:38:34.668Z,67.10
2018-07-26T00:41:04.419Z,67.92
2018-07-26T00:43:34.163Z,67.63
2018-07-26T00:46:04.410Z,68.21
2018-07-26T00:48:35.293Z,68.62
2018-07-26T00:51:04.909Z,68.65
2018-07-26T00:53:34.748Z,68.84
2018-07-26T00:56:04.377Z,68.39
2018-07-26T00:58:34.188Z,68.82
2018-07-26T01:01:03.779Z,69.02
2018-07-26T01:03:33.442Z,68.21
2018-07-26T01:06:03.051Z,68.13
2018-07-26T01:08:32.875Z,68.23
2018-07-26T01:11:03.261Z,68.83
2018-07-26T01:13:32.859Z,69.03
2018-07-26T01:16:02.499Z,70.11
2018-07-26T01:18:32.941Z,70.45
2018-07-26T01:21:02.909Z,70.22
2018-07-26T01:23:32.476Z,70.13
2018-07-26T01:26:01.776Z,70.92
2018-07-26T01:28:31.612Z,70.95
2018-07-26T01:31:01.279Z,70.79
2018-07-26T01:33:31.034Z,72.29
2018-07-26T01:36:01.352Z,71.16
2018-07-26T01:38:30.911Z,71.40
2018-07-26T01:41:00.580Z,72.00
2018-07-26T01:43:56.422Z,72.71
2018-07-26T01:46:26.951Z,73.00
2018-07-26T01:48:56.556Z,72.46
2018-07-26T01:51:26.891Z,72.77
2018-07-26T01:53:56.488Z,72.96
2018-07-26T01:56:26.028Z,73.28
2018-07-26T01:58:55.578Z,72.74
2018-07-26T02:01:25.223Z,73.42
2018-07-26T02:03:55.955Z,73.49
2018-07-26T02:06:26.529Z,73.88
2018-07-26T02:08:56.311Z,74.14
2018-07-26T02:11:26.040Z,73.88
2018-07-26T02:13:55.957Z,74.11
2018-07-26T02:16:26.175Z,74.06
2018-07-26T02:18:55.955Z,74.72
2018-07-26T02:21:25.784Z,75.37
2018-07-26T02:23:55.317Z,75.87
2018-07-26T02:26:24.960Z,75.05
2018-07-26T02:28:54.786Z,75.41
2018-07-26T02:31:25.068Z,75.45
2018-07-26T02:33:54.676Z,75.32
2018-07-26T02:36:24.370Z,76.09
2018-07-26T02:38:53.995Z,75.73
2018-07-26T02:41:24.331Z,76.35
2018-07-26T02:43:54.096Z,76.58
2018-07-26T02:46:23.775Z,75.86
2018-07-26T02:48:53.453Z,75.36
2018-07-26T02:51:24.033Z,75.83
2018-07-26T02:53:54.008Z,75.38
2018-07-26T02:56:23.753Z,75.44
2018-07-26T02:58:53.353Z,76.23
2018-07-26T03:01:22.976Z,76.75
2018-07-26T03:03:52.684Z,76.12
2018-07-26T03:06:22.396Z,75.74
2018-07-26T03:08:51.971Z,76.14
2018-07-26T03:11:21.612Z,76.01
2018-07-26T03:13:51.137Z,76.42
2018-07-26T03:16:20.799Z,77.42
2018-07-26T03:18:51.178Z,77.49
2018-07-26T03:21:20.805Z,76.89
2018-07-26T03:23:50.738Z,77.13
2018-07-26T03:26:20.340Z,77.79
2018-07-26T03:28:50.194Z,77.79
2018-07-26T03:31:19.744Z,78.87
2018-07-26T03:33:49.330Z,79.37
2018-07-26T03:36:19.458Z,78.28
2018-07-26T03:38:49.094Z,79.88
2018-07-26T03:41:18.837Z,78.80
2018-07-26T03:43:48.428Z,78.77
2018-07-26T03:46:17.758Z,79.82
2018-07-26T03:48:47.428Z,79.65
2018-07-26T03:51:17.321Z,79.55
2018-07-26T03:53:46.868Z,79.61
2018-07-26T03:56:16.635Z,79.45
2018-07-26T03:58:47.256Z,79.59
2018-07-26T04:01:16.941Z,79.56
2018-07-26T04:03:46.541Z,78.52
2018-07-26T04:06:16.177Z,78.38
2018-07-26T04:08:46.445Z,78.35
2018-07-26T04:11:16.011Z,77.85
2018-07-26T04:13:45.609Z,77.66
2018-07-26T04:16:15.175Z,77.36
2018-07-26T04:18:44.879Z,76.93
2018-07-26T04:21:14.534Z,75.70
2018-07-26T04:23:44.151Z,73.51
2018-07-26T04:26:13.706Z,66.70
2018-07-26T04:28:43.283Z,64.69
2018-07-26T04:31:12.972Z,61.31
2018-07-26T04:33:42.526Z,55.80
2018-07-26T04:36:12.190Z,62.49
2018-07-26T04:38:42.535Z,54.49
2018-07-26T04:41:12.151Z,57.39
2018-07-26T04:43:41.776Z,63.90
2018-07-26T04:46:11.231Z,68.62
2018-07-26T04:48:40.807Z,66.75
2018-07-26T04:51:10.719Z,67.06
2018-07-26T04:53:40.327Z,67.87
2018-07-26T04:56:09.911Z,68.15
2018-07-26T04:58:39.504Z,67.83
2018-07-26T05:01:09.094Z,68.45
2018-07-26T05:03:38.844Z,71.46
2018-07-26T05:06:08.453Z,68.83
2018-07-26T05:08:38.188Z,68.91
2018-07-26T05:11:07.820Z,68.95
2018-07-26T05:13:37.667Z,69.86
2018-07-26T05:16:07.404Z,69.09
2018-07-26T05:18:37.060Z,69.23
2018-07-26T05:21:06.659Z,68.77
2018-07-26T05:23:36.337Z,68.09
2018-07-26T05:26:06.354Z,68.88
2018-07-26T05:28:35.984Z,65.65
2018-07-26T05:31:05.667Z,66.37
2018-07-26T05:33:35.569Z,68.51
2018-07-26T05:36:05.181Z,64.06
2018-07-26T05:38:34.775Z,63.45
2018-07-26T05:41:04.406Z,63.30
2018-07-26T05:43:34.140Z,59.50
2018-07-26T05:46:04.470Z,44.36
2018-07-26T05:48:34.125Z,41.46
2018-07-26T05:51:04.186Z,38.18
2018-07-26T05:53:33.869Z,34.85
2018-07-26T05:56:03.634Z,35.77
2018-07-26T05:58:33.356Z,34.18
2018-07-26T06:01:03.012Z,45.86
2018-07-26T06:03:32.703Z,39.76
2018-07-26T06:06:02.400Z,36.73
2018-07-26T06:08:32.439Z,39.02
2018-07-26T06:11:02.280Z,39.95
2018-07-26T06:13:32.016Z,38.65
2018-07-26T06:16:01.868Z,41.41
2018-07-26T06:18:31.457Z,36.44
2018-07-26T06:21:01.150Z,35.39
2018-07-26T06:23:30.797Z,33.97
2018-07-26T06:26:00.480Z,31.56
2018-07-26T06:28:30.293Z,29.83
2018-07-26T06:31:00.062Z,30.05
2018-07-26T06:33:32.829Z,29.27
2018-07-26T06:36:02.444Z,27.98
2018-07-26T06:38:32.055Z,33.11
2018-07-26T06:41:01.781Z,31.74
2018-07-26T06:43:31.440Z,33.85
2018-07-26T06:46:01.031Z,32.31
2018-07-26T06:48:30.773Z,31.98
2018-07-26T06:51:00.468Z,29.80
2018-07-26T06:53:30.936Z,30.86
2018-07-26T06:56:00.279Z,30.63
2018-07-26T06:58:29.912Z,27.28
2018-07-26T07:00:59.572Z,28.14
2018-07-26T07:03:29.269Z,27.93
2018-07-26T07:05:59.530Z,27.09
2018-07-26T07:08:29.182Z,26.63
2018-07-26T07:10:59.383Z,27.53
2018-07-26T07:13:29.806Z,30.59
2018-07-26T07:15:59.599Z,28.78
2018-07-26T07:18:29.343Z,26.08
2018-07-26T07:20:59.052Z,29.43
2018-07-26T07:23:28.846Z,28.01
2018-07-26T07:25:58.550Z,26.69
2018-07-26T07:28:28.208Z,26.43
2018-07-26T07:31:00.094Z,28.73
2018-07-26T07:33:29.793Z,30.88
2018-07-26T07:35:59.543Z,28.87
2018-07-26T07:38:29.202Z,31.48
2018-07-26T07:40:58.944Z,28.37
2018-07-26T07:43:28.864Z,27.98
2018-07-26T07:45:59.199Z,31.26
2018-07-26T07:48:28.850Z,29.70
2018-07-26T07:50:58.602Z,31.63
2018-07-26T07:53:28.837Z,31.30
2018-07-26T07:55:58.535Z,32.08
2018-07-26T07:58:28.748Z,31.75
2018-07-26T08:00:58.452Z,29.21
2018-07-26T08:03:28.094Z,30.13
2018-07-26T08:05:57.763Z,29.93
2018-07-26T08:08:27.497Z,31.50
2018-07-26T08:10:57.225Z,31.27
2018-07-26T08:13:27.482Z,27.49
2018-07-26T08:15:57.272Z,30.11
2018-07-26T08:18:27.758Z,29.72
2018-07-26T08:20:58.153Z,30.00
2018-07-26T08:23:27.914Z,28.92
2018-07-26T08:25:57.513Z,28.97
2018-07-26T08:28:27.439Z,29.01
2018-07-26T08:30:57.683Z,30.28
2018-07-26T08:33:27.771Z,28.66
2018-07-26T08:35:57.430Z,29.89
2018-07-26T08:38:30.521Z,30.14
2018-07-26T08:41:01.203Z,30.30
2018-07-26T08:43:30.828Z,28.80
2018-07-26T08:46:00.495Z,27.69
2018-07-26T08:48:30.272Z,26.94
2018-07-26T08:50:59.891Z,28.06
2018-07-26T08:53:29.610Z,27.35
2018-07-26T08:55:59.361Z,27.41
2018-07-26T08:58:29.032Z,27.19
2018-07-26T09:00:58.856Z,28.38
2018-07-26T09:03:28.790Z,30.98
2018-07-26T09:05:58.542Z,29.79
2018-07-26T09:08:28.390Z,28.86
2018-07-26T09:10:58.255Z,27.56
2018-07-26T09:13:27.991Z,26.37
2018-07-26T09:15:58.140Z,26.92
2018-07-26T09:18:27.999Z,29.19
2018-07-26T09:20:57.901Z,26.14
2018-07-26T09:23:28.180Z,26.45
2018-07-26T09:25:57.971Z,26.54
2018-07-26T09:28:27.693Z,27.59
2018-07-26T09:30:57.493Z,26.03
2018-07-26T09:33:27.317Z,28.49
2018-07-26T09:35:57.765Z,26.39
2018-07-26T09:38:27.531Z,25.16
2018-07-26T09:40:57.395Z,23.77
2018-07-26T09:43:27.077Z,25.14
2018-07-26T09:45:56.777Z,25.24
2018-07-26T09:48:27.170Z,25.11
2018-07-26T09:50:57.226Z,25.08
2018-07-26T09:53:26.948Z,25.02
2018-07-26T09:55:56.766Z,24.34
2018-07-26T09:58:26.601Z,26.40
2018-07-26T10:01:01.563Z,25.80
2018-07-26T10:03:31.396Z,25.82
2018-07-26T10:06:01.364Z,24.68
2018-07-26T10:08:31.134Z,24.08
2018-07-26T10:11:00.931Z,23.63
2018-07-26T10:13:30.635Z,24.88
2018-07-26T10:16:00.464Z,23.67
2018-07-26T10:18:30.909Z,23.08
2018-07-26T10:21:00.616Z,23.26
2018-07-26T10:23:30.241Z,23.14
2018-07-26T10:26:00.205Z,24.71
2018-07-26T10:28:30.241Z,24.55
2018-07-26T10:31:00.041Z,23.75
2018-07-26T10:33:29.727Z,24.37
2018-07-26T10:35:59.491Z,24.84
2018-07-26T10:38:29.107Z,24.72
2018-07-26T10:40:58.881Z,26.06
2018-07-26T10:43:28.509Z,26.14
2018-07-26T10:45:58.153Z,23.46
2018-07-26T10:48:27.846Z,23.69
2018-07-26T10:50:57.517Z,23.60
2018-07-26T10:53:27.232Z,24.30
2018-07-26T10:55:57.644Z,24.89
2018-07-26T10:58:27.391Z,24.29
2018-07-26T11:00:57.109Z,26.33
2018-07-26T11:03:26.740Z,24.83
2018-07-26T11:05:56.335Z,25.35
2018-07-26T11:08:26.024Z,25.11
2018-07-26T11:10:55.801Z,23.84
2018-07-26T11:13:25.467Z,24.60
2018-07-26T11:15:55.083Z,24.17
2018-07-26T11:18:24.829Z,25.14
2018-07-26T11:20:54.615Z,26.70
2018-07-26T11:23:24.236Z,27.44
2018-07-26T11:25:53.853Z,26.44
2018-07-26T11:28:23.482Z,26.13
2018-07-26T11:30:53.247Z,25.79
2018-07-26T11:33:22.870Z,26.20
2018-07-26T11:35:52.512Z,25.92
2018-07-26T11:38:22.139Z,26.48
2018-07-26T11:40:51.762Z,26.29
2018-07-26T11:43:21.419Z,25.99
2018-07-26T11:45:51.663Z,25.95
2018-07-26T11:48:24.096Z,25.73
2018-07-26T11:50:53.796Z,25.00
2018-07-26T11:53:23.450Z,23.95
2018-07-26T11:55:53.124Z,24.30
2018-07-26T11:58:22.811Z,25.06
2018-07-26T12:00:52.512Z,24.50
2018-07-26T12:03:22.307Z,24.16
2018-07-26T12:05:52.779Z,24.48
2018-07-26T12:08:22.418Z,24.30
2018-07-26T12:10:52.112Z,23.87
2018-07-26T12:13:21.738Z,23.54
2018-07-26T12:15:51.531Z,22.71
2018-07-26T12:18:21.125Z,23.59
2018-07-26T12:20:50.827Z,22.04
2018-07-26T12:23:20.399Z,23.38
2018-07-26T12:25:49.968Z,22.61
2018-07-26T12:28:19.693Z,22.60
2018-07-26T12:30:49.946Z,23.14
2018-07-26T12:33:19.567Z,23.46
2018-07-26T12:35:49.232Z,22.87
2018-07-26T12:38:18.872Z,23.47
2018-07-26T12:40:48.820Z,22.35
2018-07-26T12:43:18.476Z,22.18
2018-07-26T12:45:48.123Z,21.33
2018-07-26T12:48:17.880Z,21.36
2018-07-26T12:50:47.562Z,21.93
2018-07-26T12:53:17.230Z,22.88
2018-07-26T12:55:47.561Z,22.68
2018-07-26T12:58:17.200Z,22.24
2018-07-26T13:00:47.103Z,22.01
2018-07-26T13:03:16.976Z,22.73
2018-07-26T13:05:47.216Z,22.62
2018-07-26T13:08:16.954Z,22.10
2018-07-26T13:10:46.589Z,21.91
2018-07-26T13:13:16.321Z,21.96
2018-07-26T13:15:46.203Z,21.67
2018-07-26T13:18:15.903Z,22.48
2018-07-26T13:20:45.583Z,22.40
2018-07-26T13:23:15.296Z,22.02
2018-07-26T13:25:44.929Z,22.32
2018-07-26T13:28:14.769Z,22.44
2018-07-26T13:30:44.510Z,22.51
2018-07-26T13:33:14.269Z,22.46
2018-07-26T13:35:43.926Z,23.40
2018-07-26T13:38:13.792Z,22.36
2018-07-26T13:40:43.643Z,22.17
2018-07-26T13:43:13.342Z,22.41
2018-07-26T13:45:43.045Z,22.08
2018-07-26T13:48:12.733Z,21.93
2018-07-26T13:50:42.635Z,21.81
2018-07-26T13:53:12.321Z,21.97
2018-07-26T13:55:42.058Z,21.84
2018-07-26T13:58:11.880Z,22.72
2018-07-26T14:00:41.649Z,22.50
2018-07-26T14:03:11.252Z,22.96
2018-07-26T14:05:41.169Z,21.68
2018-07-26T14:08:10.837Z,22.59
2018-07-26T14:10:40.520Z,21.76
2018-07-26T14:13:10.150Z,22.69
2018-07-26T14:15:39.790Z,22.89
2018-07-26T14:18:09.480Z,23.18
2018-07-26T14:20:39.501Z,22.97
2018-07-26T14:23:13.077Z,22.75
2018-07-26T14:25:42.934Z,23.09
2018-07-26T14:28:12.650Z,22.52
2018-07-26T14:30:42.877Z,23.35
2018-07-26T14:33:12.632Z,23.71
2018-07-26T14:35:42.330Z,22.98
2018-07-26T14:38:12.031Z,22.65
2018-07-26T14:40:41.660Z,22.48
2018-07-26T14:43:11.264Z,23.46
2018-07-26T14:45:40.884Z,23.41
2018-07-26T14:48:10.643Z,22.97
2018-07-26T14:50:40.273Z,23.57
2018-07-26T14:53:09.930Z,23.81
2018-07-26T14:55:39.655Z,23.25
2018-07-26T14:58:09.489Z,22.90
2018-07-26T15:00:40.120Z,22.95
2018-07-26T15:03:09.830Z,23.53
2018-07-26T15:05:39.533Z,22.87
2018-07-26T15:08:09.268Z,23.31
2018-07-26T15:10:39.005Z,22.44
2018-07-26T15:13:08.631Z,22.78
2018-07-26T15:15:38.261Z,22.63
2018-07-26T15:18:07.861Z,23.46
2018-07-26T15:20:37.609Z,22.95
2018-07-26T15:23:07.508Z,23.40
2018-07-26T15:25:37.277Z,23.21
2018-07-26T15:28:06.987Z,23.15
2018-07-26T15:30:37.188Z,23.61
2018-07-26T15:33:07.013Z,23.37
2018-07-26T15:35:36.771Z,23.23
2018-07-26T15:38:06.468Z,23.91
2018-07-26T15:40:36.088Z,23.15
2018-07-26T15:43:05.737Z,23.22
2018-07-26T15:45:35.398Z,22.80
2018-07-26T15:48:06.064Z,22.60
2018-07-26T15:50:36.132Z,23.20
2018-07-26T15:53:05.862Z,22.91
2018-07-26T15:55:35.514Z,23.08
2018-07-26T15:58:05.148Z,22.49
2018-07-26T16:00:34.878Z,22.39
2018-07-26T16:03:04.581Z,22.37
2018-07-26T16:05:34.249Z,22.82
2018-07-26T16:08:04.096Z,23.15
2018-07-26T16:10:33.704Z,23.29
2018-07-26T16:13:03.320Z,22.52
2018-07-26T16:15:32.922Z,22.44
2018-07-26T16:18:02.580Z,22.99
2018-07-26T16:20:39.026Z,22.80
2018-07-26T16:23:08.759Z,23.57
2018-07-26T16:25:38.404Z,23.47
2018-07-26T16:28:08.177Z,22.58
2018-07-26T16:30:39.905Z,22.35
2018-07-26T16:33:09.742Z,22.81
2018-07-26T16:35:39.487Z,23.79
2018-07-26T16:38:09.146Z,23.23
2018-07-26T16:40:38.782Z,23.62
2018-07-26T16:43:08.447Z,23.48
2018-07-26T16:45:41.180Z,23.52
2018-07-26T16:48:11.072Z,24.09
2018-07-26T16:50:40.804Z,23.21
2018-07-26T16:53:10.998Z,23.64
2018-07-26T16:55:40.812Z,23.05
2018-07-26T16:58:10.655Z,23.72
2018-07-26T17:00:40.393Z,23.58
2018-07-26T17:03:10.691Z,23.20
2018-07-26T17:05:40.833Z,23.35
2018-07-26T17:08:10.988Z,23.35
2018-07-26T17:10:40.613Z,23.95
2018-07-26T17:13:11.043Z,23.73
2018-07-26T17:15:40.731Z,23.91
2018-07-26T17:18:10.579Z,22.98
2018-07-26T17:20:40.303Z,23.94
2018-07-26T17:23:10.028Z,23.49
2018-07-26T17:25:39.782Z,24.02
2018-07-26T17:28:09.577Z,23.26
2018-07-26T17:30:39.906Z,23.21
2018-07-26T17:33:09.689Z,24.48
2018-07-26T17:35:39.605Z,23.84
2018-07-26T17:38:09.218Z,24.01
2018-07-26T17:40:39.560Z,24.02
2018-07-26T17:43:09.193Z,24.67
2018-07-26T17:45:38.930Z,24.97
2018-07-26T17:48:08.623Z,24.29
2018-07-26T17:50:38.488Z,25.17
2018-07-26T17:53:08.212Z,25.40
2018-07-26T17:55:38.064Z,24.74
2018-07-26T17:58:07.890Z,24.55
2018-07-26T18:00:37.629Z,24.83
2018-07-26T18:03:07.419Z,24.66
2018-07-26T18:05:37.137Z,24.99
2018-07-26T18:08:07.079Z,25.05
2018-07-26T18:10:36.818Z,24.81
2018-07-26T18:13:06.894Z,24.93
2018-07-26T18:15:36.806Z,25.69
2018-07-26T18:18:06.566Z,25.00
2018-07-26T18:20:36.433Z,25.16
2018-07-26T18:23:06.100Z,25.86
2018-07-26T18:25:36.297Z,25.67
2018-07-26T18:28:06.225Z,26.26
2018-07-26T18:30:36.290Z,25.58
2018-07-26T18:33:06.064Z,26.32
2018-07-26T18:35:36.138Z,26.35
2018-07-26T18:38:06.264Z,26.21
2018-07-26T18:40:35.973Z,26.33
2018-07-26T18:43:05.754Z,27.02
2018-07-26T18:45:35.638Z,26.92
2018-07-26T18:48:05.486Z,27.38
2018-07-26T18:50:35.321Z,27.05
2018-07-26T18:53:05.562Z,27.88
2018-07-26T18:55:35.577Z,28.26
2018-07-26T18:58:05.292Z,27.35
2018-07-26T19:00:34.949Z,28.27
2018-07-26T19:03:04.693Z,28.59
2018-07-26T19:05:34.630Z,28.68
2018-07-26T19:08:04.579Z,29.15
2018-07-26T19:10:34.243Z,28.50
2018-07-26T19:13:04.082Z,29.61
2018-07-26T19:15:33.742Z,29.19
2018-07-26T19:18:03.498Z,29.94
2018-07-26T19:20:33.259Z,29.67
2018-07-26T19:23:03.070Z,29.70
2018-07-26T19:25:32.825Z,30.41
2018-07-26T19:28:02.690Z,30.13
2018-07-26T19:30:32.411Z,30.42
2018-07-26T19:33:02.106Z,30.18
2018-07-26T19:35:31.937Z,30.47
2018-07-26T19:38:01.567Z,30.57
2018-07-26T19:40:31.426Z,31.55
2018-07-26T19:43:01.766Z,31.34
2018-07-26T19:45:32.119Z,32.36
2018-07-26T19:48:02.034Z,32.70
2018-07-26T19:50:31.728Z,31.83
2018-07-26T19:53:01.501Z,32.39
2018-07-26T19:55:31.781Z,33.48
2018-07-26T19:58:01.853Z,33.04
2018-07-26T20:00:32.243Z,33.88
2018-07-26T20:03:02.315Z,33.82
2018-07-26T20:05:32.780Z,34.92
2018-07-26T20:08:02.955Z,34.75
2018-07-26T20:10:32.784Z,35.48
2018-07-26T20:13:02.837Z,35.49
2018-07-26T20:15:32.636Z,35.24
2018-07-26T20:18:02.301Z,34.96
2018-07-26T20:20:32.015Z,35.28
2018-07-26T20:23:01.734Z,36.65
2018-07-26T20:25:31.445Z,36.21
2018-07-26T20:28:01.311Z,37.11
2018-07-26T20:30:31.006Z,37.32
2018-07-26T20:33:00.746Z,37.05
2018-07-26T20:35:30.405Z,37.51
2018-07-26T20:38:03.051Z,37.71
2018-07-26T20:40:32.817Z,38.02
2018-07-26T20:43:02.858Z,38.99
2018-07-26T20:45:32.685Z,38.67
2018-07-26T20:48:02.566Z,39.62
2018-07-26T20:50:32.404Z,39.84
2018-07-26T20:53:02.329Z,38.82
2018-07-26T20:55:32.231Z,39.69
2018-07-26T20:58:02.106Z,39.08
2018-07-26T21:00:31.907Z,39.01
2018-07-26T21:03:02.066Z,39.08
2018-07-26T21:05:31.851Z,39.36
2018-07-26T21:08:02.339Z,39.60
2018-07-26T21:10:32.378Z,38.89
2018-07-26T21:13:02.810Z,39.43
2018-07-26T21:15:32.859Z,40.13
2018-07-26T21:18:02.558Z,40.18
2018-07-26T21:20:34.491Z,40.12
2018-07-26T21:23:04.301Z,40.28
2018-07-26T21:25:34.402Z,40.58
2018-07-26T21:28:05.426Z,40.86
2018-07-26T21:30:35.297Z,40.64
2018-07-26T21:33:05.045Z,39.81
2018-07-26T21:35:35.049Z,40.85
2018-07-26T21:38:04.834Z,40.20
2018-07-26T21:40:34.780Z,40.92
2018-07-26T21:43:04.364Z,40.41
2018-07-26T21:45:34.068Z,40.71
2018-07-26T21:48:04.492Z,40.60
2018-07-26T21:50:34.252Z,41.53
2018-07-26T21:53:04.113Z,40.79
2018-07-26T21:55:34.608Z,40.80
2018-07-26T21:58:04.710Z,40.94
2018-07-26T22:00:41.838Z,40.72
2018-07-26T22:03:11.810Z,41.49
2018-07-26T22:05:41.605Z,40.81
2018-07-26T22:08:11.398Z,41.46
2018-07-26T22:10:41.284Z,41.04
2018-07-26T22:13:11.124Z,41.69
2018-07-26T22:15:40.857Z,42.20
2018-07-26T22:18:10.580Z,42.72
2018-07-26T22:20:40.507Z,43.47
2018-07-26T22:23:10.297Z,42.85
2018-07-26T22:25:40.326Z,44.03
2018-07-26T22:28:10.049Z,43.63
2018-07-26T22:30:39.998Z,44.31
2018-07-26T22:33:10.327Z,44.25
2018-07-26T22:35:40.738Z,43.84
2018-07-26T22:38:10.898Z,43.70
2018-07-26T22:40:41.195Z,44.19
2018-07-26T22:43:11.029Z,45.52
2018-07-26T22:45:40.642Z,45.00
2018-07-26T22:48:10.408Z,45.78
2018-07-26T22:50:40.974Z,45.22
2018-07-26T22:53:10.942Z,44.87
2018-07-26T22:55:41.226Z,45.51
2018-07-26T22:58:10.862Z,46.19
2018-07-26T23:00:40.535Z,46.38
2018-07-26T23:03:10.139Z,45.75
2018-07-26T23:05:39.795Z,46.83
2018-07-26T23:08:09.605Z,46.75
2018-07-26T23:10:39.313Z,46.51
2018-07-26T23:13:09.720Z,46.54
2018-07-26T23:15:39.517Z,46.88
2018-07-26T23:18:09.745Z,46.25
2018-07-26T23:20:39.996Z,47.33
2018-07-26T23:23:09.775Z,46.85
2018-07-26T23:25:39.468Z,47.14
2018-07-26T23:28:09.224Z,47.95
2018-07-26T23:30:38.886Z,47.26
2018-07-26T23:33:08.617Z,47.68
2018-07-26T23:35:38.401Z,48.33
2018-07-26T23:38:08.154Z,47.89
2018-07-26T23:40:38.679Z,48.04
2018-07-26T23:43:08.384Z,48.22
2018-07-26T23:45:38.207Z,48.57
2018-07-26T23:48:07.901Z,49.43
2018-07-26T23:50:38.481Z,48.66
2018-07-26T23:53:08.120Z,48.51
2018-07-26T23:55:38.382Z,48.70
2018-07-26T23:58:08.011Z,48.21
